Time;durP1;ratioP1;P1;durP2;ratioP2;P2;SDS_P1;SDS_P2;PMS_P1;PMS_P2;Temp;Humidity;BMP_temperature;BMP_pressure;BME280_temperature;BME280_humidity;BME280_pressure;Samples;Min_cycle;Max_cycle;Signal;HPM_P1;HPM_P2
2021/06/29 00:04:47;;;;;;;5.10;4.70;;;;;;;;;;10322813;28;20302;-65
2021/06/29 00:09:45;;;;;;;5.20;4.80;;;;;;;;;;10316651;28;20108;-68
2021/06/29 00:14:45;;;;;;;4.97;4.57;;;;;;;;;;10311182;28;20117;-65
2021/06/29 00:19:42;;;;;;;6.28;4.53;;;;;;;;;;10295580;28;20105;-66
2021/06/29 00:24:39;;;;;;;4.50;4.10;;;;;;;;;;10338588;28;20041;-67
2021/06/29 00:29:37;;;;;;;5.57;5.10;;;;;;;;;;10306079;28;20295;-68
2021/06/29 00:34:34;;;;;;;4.77;4.37;;;;;;;;;;10328463;28;20064;-68
2021/06/29 00:39:32;;;;;;;5.07;4.67;;;;;;;;;;10326119;28;20276;-70
2021/06/29 00:44:48;;;;;;;4.80;4.50;;;;;;;;;;10330558;28;20728;-68
2021/06/29 00:49:45;;;;;;;4.93;4.53;;;;;;;;;;10329334;28;20491;-67
2021/06/29 00:54:42;;;;;;;;;;;;;;;;;;10326397;28;20268;-68
2021/06/29 00:59:42;;;;;;;5.93;5.40;;;;;;;;;;10327715;28;19913;-66
2021/06/29 01:04:41;;;;;;;5.72;5.13;;;;;;;;;;10327390;28;20037;-67
2021/06/29 01:09:38;;;;;;;5.68;5.18;;;;;;;;;;10333175;28;20033;-67
2021/06/29 01:14:36;;;;;;;;;;;;;;;;;;10319368;28;20032;-66
2021/06/29 01:19:38;;;;;;;5.32;4.82;;;;;;;;;;10317488;28;19917;-66
2021/06/29 01:24:35;;;;;;;5.93;5.47;;;;;;;;;;10314469;28;20388;-67
2021/06/29 01:29:49;;;;;;;;;;;;;;;;;;10326812;28;20037;-66
2021/06/29 01:34:47;;;;;;;5.68;5.18;;;;;;;;;;10328421;28;19916;-67
2021/06/29 01:39:44;;;;;;;;;;;;;;;;;;10323359;28;20571;-71
2021/06/29 01:44:42;;;;;;;7.10;6.40;;;;;;;;;;10316909;28;19999;-68
2021/06/29 01:49:40;;;;;;;;;;;;;;;;;;10319455;28;20030;-68
2021/06/29 01:54:37;;;;;;;6.93;6.22;;;;;;;;;;10314350;28;19920;-67
2021/06/29 01:59:34;;;;;;;;;;;;;;;;;;10324505;28;20037;-68
2021/06/29 02:04:32;;;;;;;7.17;6.47;;;;;;;;;;10301844;28;20416;-67
2021/06/29 02:09:29;;;;;;;;;;;;;;;;;;10311710;28;20121;-68
2021/06/29 02:14:26;;;;;;;6.15;5.57;;;;;;;;;;10324069;28;19921;-68
2021/06/29 02:19:24;;;;;;;;;;;;;;;;;;10324502;28;20037;-69
2021/06/29 02:24:21;;;;;;;6.97;6.38;;;;;;;;;;10319971;28;20337;-69
2021/06/29 02:29:18;;;;;;;;;;;;;;;;;;10324485;28;20348;-68
2021/06/29 02:34:16;;;;;;;6.80;6.20;;;;;;;;;;10331893;28;20091;-70
2021/06/29 02:39:13;;;;;;;;;;;;;;;;;;10304374;28;20047;-68
2021/06/29 02:44:11;;;;;;;6.93;6.32;;;;;;;;;;10326786;28;20288;-68
2021/06/29 02:49:08;;;;;;;7.03;6.35;;;;;;;;;;10340255;28;20494;-70
2021/06/29 02:54:06;;;;;;;6.73;6.10;;;;;;;;;;10329135;28;20017;-67
2021/06/29 02:59:11;;;;;;;7.70;6.43;;;;;;;;;;10325773;28;20414;-70
2021/06/29 03:04:09;;;;;;;7.10;6.40;;;;;;;;;;10344887;28;20041;-67
2021/06/29 03:09:07;;;;;;;7.85;6.63;;;;;;;;;;10338681;28;20466;-67
2021/06/29 03:14:05;;;;;;;7.60;6.90;;;;;;;;;;10347229;28;20032;-68
2021/06/29 03:19:02;;;;;;;7.20;6.60;;;;;;;;;;10339718;28;20024;-69
2021/06/29 03:24:00;;;;;;;8.20;7.40;;;;;;;;;;10329201;28;20032;-66
2021/06/29 03:28:57;;;;;;;;;;;;;;;;;;10346077;28;20082;-67
2021/06/29 03:33:54;;;;;;;7.50;6.80;;;;;;;;;;10327769;28;19919;-66
2021/06/29 03:38:52;;;;;;;6.80;6.20;;;;;;;;;;10347552;28;20486;-67
2021/06/29 03:43:49;;;;;;;7.77;6.97;;;;;;;;;;10344779;28;20045;-67
2021/06/29 03:48:46;;;;;;;7.57;6.83;;;;;;;;;;10345832;28;20033;-67
2021/06/29 03:53:45;;;;;;;7.73;7.03;;;;;;;;;;10330731;28;20121;-65
2021/06/29 03:58:43;;;;;;;7.43;6.72;;;;;;;;;;10344467;28;20110;-67
2021/06/29 04:03:40;;;;;;;8.23;7.43;;;;;;;;;;10344156;28;20091;-67
2021/06/29 04:08:37;;;;;;;8.07;7.20;;;;;;;;;;10337405;28;20465;-67
2021/06/29 04:13:35;;;;;;;7.37;6.60;;;;;;;;;;10339980;28;20037;-66
2021/06/29 04:18:32;;;;;;;10.33;6.80;;;;;;;;;;10343855;28;20076;-68
2021/06/29 04:23:30;;;;;;;8.73;7.50;;;;;;;;;;10343348;28;20106;-65
2021/06/29 04:28:27;;;;;;;8.15;7.13;;;;;;;;;;10344533;28;20069;-66
2021/06/29 04:33:24;;;;;;;;;;;;;;;;;;10304141;28;20060;-66
2021/06/29 04:38:22;;;;;;;8.37;6.90;;;;;;;;;;10314328;28;19933;-67
2021/06/29 04:43:19;;;;;;;8.05;6.88;;;;;;;;;;10317905;28;20281;-68
2021/06/29 04:48:17;;;;;;;8.50;7.57;;;;;;;;;;10315153;28;20101;-64
2021/06/29 04:53:14;;;;;;;8.50;7.43;;;;;;;;;;10310463;28;20090;-65
2021/06/29 04:58:12;;;;;;;7.77;6.93;;;;;;;;;;10324962;28;20037;-67
2021/06/29 05:03:09;;;;;;;7.47;6.80;;;;;;;;;;10330104;28;20043;-67
2021/06/29 05:08:07;;;;;;;9.17;7.90;;;;;;;;;;10307112;28;20110;-64
2021/06/29 05:13:05;;;;;;;8.70;7.70;;;;;;;;;;10312694;28;20028;-65
2021/06/29 05:18:03;;;;;;;15.05;13.55;;;;;;;;;;10321838;28;20037;-65
2021/06/29 05:23:00;;;;;;;11.27;10.07;;;;;;;;;;10315784;28;20036;-66
2021/06/29 05:27:57;;;;;;;;;;;;;;;;;;10323471;28;20098;-71
2021/06/29 05:32:56;;;;;;;10.65;9.43;;;;;;;;;;10321369;28;19913;-65
2021/06/29 05:37:53;;;;;;;;;;;;;;;;;;10327629;28;20086;-64
2021/06/29 05:42:50;;;;;;;9.73;8.63;;;;;;;;;;10309624;28;19959;-67
2021/06/29 05:47:48;;;;;;;;;;;;;;;;;;10328625;28;20033;-64
2021/06/29 05:52:46;;;;;;;9.48;8.57;;;;;;;;;;10317554;28;19913;-65
2021/06/29 05:57:43;;;;;;;;;;;;;;;;;;10331017;28;20052;-65
2021/06/29 06:02:41;;;;;;;10.30;9.30;;;;;;;;;;10318784;28;19919;-65
2021/06/29 06:07:38;;;;;;;;;;;;;;;;;;10327988;28;20078;-65
2021/06/29 06:12:36;;;;;;;9.90;8.90;;;;;;;;;;10321624;28;19958;-66
2021/06/29 06:17:37;;;;;;;;;;;;;;;;;;10287494;28;20557;-67
2021/06/29 06:22:34;;;;;;;9.57;8.50;;;;;;;;;;10322538;28;19913;-68
2021/06/29 06:27:32;;;;;;;11.47;9.60;;;;;;;;;;10321960;28;20025;-64
2021/06/29 06:32:29;;;;;;;;;;;;;;;;;;10319987;28;20100;-65
2021/06/29 06:37:27;;;;;;;10.90;9.90;;;;;;;;;;10320682;28;19928;-65
2021/06/29 06:42:24;;;;;;;9.90;8.97;;;;;;;;;;10314772;28;20116;-65
2021/06/29 06:47:21;;;;;;;17.50;15.90;;;;;;;;;;10323181;28;20121;-66
2021/06/29 06:52:19;;;;;;;;;;;;;;;;;;10309759;28;20561;-64
2021/06/29 06:57:16;;;;;;;8.82;7.93;;;;;;;;;;10326795;28;20313;-65
2021/06/29 07:02:14;;;;;;;;;;;;;;;;;;10318698;28;20521;-66
2021/06/29 07:07:12;;;;;;;15.65;12.30;;;;;;;;;;10321919;28;19929;-67
2021/06/29 07:12:10;;;;;;;10.20;9.27;;;;;;;;;;10293188;28;20033;-63
2021/06/29 07:17:08;;;;;;;13.65;10.40;;;;;;;;;;10346225;28;20641;-66
2021/06/29 07:22:05;;;;;;;8.98;8.15;;;;;;;;;;10317075;28;20060;-65
2021/06/29 07:27:04;;;;;;;;;;;;;;;;;;10320663;28;20036;-63
2021/06/29 07:32:02;;;;;;;9.63;7.32;;;;;;;;;;10321102;28;20306;-64
2021/06/29 07:37:00;;;;;;;;;;;;;;;;;;10324149;28;20067;-64
2021/06/29 07:41:57;;;;;;;10.68;6.95;;;;;;;;;;10329122;28;20372;-65
2021/06/29 07:46:57;;;;;;;;;;;;;;;;;;10321449;28;20509;-64
2021/06/29 07:51:54;;;;;;;8.82;6.38;;;;;;;;;;10310443;28;19913;-66
2021/06/29 07:56:52;;;;;;;7.17;6.50;;;;;;;;;;10333018;28;20128;-63
2021/06/29 08:01:49;;;;;;;;;;;;;;;;;;10323799;28;20419;-65
2021/06/29 08:06:47;;;;;;;7.38;6.47;;;;;;;;;;10306767;28;19928;-64
2021/06/29 08:11:44;;;;;;;;;;;;;;;;;;10323843;28;20325;-65
2021/06/29 08:16:44;;;;;;;7.40;6.73;;;;;;;;;;10319199;28;19917;-67
2021/06/29 08:21:41;;;;;;;7.35;6.63;;;;;;;;;;10327919;28;20036;-64
2021/06/29 08:26:38;;;;;;;;;;;;;;;;;;10326382;28;20033;-63
2021/06/29 08:31:37;;;;;;;6.88;6.13;;;;;;;;;;10325356;28;19913;-63
2021/06/29 08:36:41;;;;;;;6.97;6.18;;;;;;;;;;10328705;28;20061;-64
2021/06/29 08:41:39;;;;;;;7.00;6.30;;;;;;;;;;10322051;28;20546;-64
2021/06/29 08:46:36;;;;;;;;;;;;;;;;;;10317393;28;20096;-64
2021/06/29 08:51:34;;;;;;;8.15;6.72;;;;;;;;;;10321930;28;20322;-64
2021/06/29 08:56:31;;;;;;;;;;;;;;;;;;10309709;28;20038;-65
2021/06/29 09:01:29;;;;;;;6.07;5.57;;;;;;;;;;10317147;28;19921;-63
2021/06/29 09:06:26;;;;;;;;;;;;;;;;;;10308173;28;20049;-64
2021/06/29 09:11:24;;;;;;;6.60;6.00;;;;;;;;;;10313633;28;19916;-65
2021/06/29 09:16:21;;;;;;;;;;;;;;;;;;10313921;28;20520;-64
2021/06/29 09:21:19;;;;;;;7.87;6.33;;;;;;;;;;10316144;28;19916;-63
2021/06/29 09:26:16;;;;;;;;;;;;;;;;;;10309141;28;20693;-65
2021/06/29 09:31:24;;;;;;;8.60;6.72;;;;;;;;;;10305190;28;20299;-66
2021/06/29 09:36:22;;;;;;;6.90;6.20;;;;;;;;;;10318354;28;20049;-66
2021/06/29 09:41:31;;;;;;;7.53;6.82;;;;;;;;;;10294359;28;20029;-66
2021/06/29 09:46:28;;;;;;;;;;;;;;;;;;10297805;28;20691;-69
2021/06/29 09:51:32;;;;;;;6.93;6.22;;;;;;;;;;10284097;28;20039;-64
2021/06/29 09:56:40;;;;;;;6.85;6.25;;;;;;;;;;10304403;28;20025;-64
2021/06/29 10:01:37;;;;;;;6.72;6.13;;;;;;;;;;10309985;28;20037;-64
2021/06/29 10:06:35;;;;;;;6.77;6.17;;;;;;;;;;10313884;28;20402;-66
2021/06/29 10:11:34;;;;;;;6.88;6.28;;;;;;;;;;10308727;28;20807;-66
2021/06/29 10:16:33;;;;;;;6.45;5.85;;;;;;;;;;10327213;28;20044;-66
2021/06/29 10:21:33;;;;;;;6.35;5.72;;;;;;;;;;10311952;28;20526;-65
2021/06/29 10:26:31;;;;;;;6.15;5.45;;;;;;;;;;10315989;28;20065;-66
2021/06/29 10:31:30;;;;;;;6.75;6.07;;;;;;;;;;10322749;28;20048;-65
2021/06/29 10:36:28;;;;;;;7.18;5.97;;;;;;;;;;10335940;28;20060;-64
2021/06/29 10:41:31;;;;;;;8.20;6.38;;;;;;;;;;10311307;28;20036;-68
2021/06/29 10:46:28;;;;;;;7.45;6.72;;;;;;;;;;10324368;28;20072;-66
2021/06/29 10:51:25;;;;;;;;;;;;;;;;;;10325416;28;20056;-66
2021/06/29 10:56:27;;;;;;;6.78;6.20;;;;;;;;;;10324438;28;19923;-66
2021/06/29 11:01:26;;;;;;;6.97;6.28;;;;;;;;;;10321388;28;20414;-67
2021/06/29 11:06:29;;;;;;;6.65;6.05;;;;;;;;;;10319321;28;20359;-63
2021/06/29 11:11:28;;;;;;;6.10;5.53;;;;;;;;;;10333101;28;20028;-65
2021/06/29 11:16:58;;;;;;;6.43;5.82;;;;;;;;;;10332516;28;20036;-65
2021/06/29 11:21:55;;;;;;;6.43;5.82;;;;;;;;;;10305592;28;20091;-66
2021/06/29 11:26:52;;;;;;;;;;;;;;;;;;10322330;28;20075;-66
2021/06/29 11:31:51;;;;;;;6.97;6.38;;;;;;;;;;10307037;28;19913;-66
2021/06/29 11:36:52;;;;;;;6.47;5.97;;;;;;;;;;10317788;28;20037;-64
2021/06/29 11:42:10;;;;;;;6.07;5.60;;;;;;;;;;10312553;28;20037;-67
2021/06/29 11:47:11;;;;;;;6.45;5.95;;;;;;;;;;10324849;28;20135;-64
2021/06/29 11:52:14;;;;;;;6.97;6.25;;;;;;;;;;10305505;28;20040;-66
2021/06/29 11:57:17;;;;;;;5.97;5.47;;;;;;;;;;10309259;28;20033;-65
2021/06/29 12:02:18;;;;;;;8.32;7.53;;;;;;;;;;10317239;28;20040;-68
2021/06/29 12:07:27;;;;;;;6.90;6.30;;;;;;;;;;10300828;28;20033;-67
2021/06/29 12:12:27;;;;;;;7.13;6.43;;;;;;;;;;10308530;28;20033;-64
2021/06/29 12:17:24;;;;;;;6.80;6.10;;;;;;;;;;10300061;28;20045;-67
2021/06/29 12:22:32;;;;;;;8.77;8.02;;;;;;;;;;10315670;28;20033;-68
2021/06/29 12:27:30;;;;;;;5.97;5.35;;;;;;;;;;10314017;28;20482;-67
2021/06/29 12:32:27;;;;;;;7.50;6.80;;;;;;;;;;10314289;28;20033;-67
2021/06/29 12:37:24;;;;;;;6.00;5.50;;;;;;;;;;10315146;28;20225;-68
2021/06/29 12:42:22;;;;;;;4.87;4.47;;;;;;;;;;10332982;28;20025;-67
2021/06/29 12:47:19;;;;;;;5.63;4.97;;;;;;;;;;10324423;28;20037;-67
2021/06/29 12:52:16;;;;;;;5.17;4.70;;;;;;;;;;10328043;28;20275;-68
2021/06/29 12:57:14;;;;;;;5.70;4.30;;;;;;;;;;10322914;28;20037;-65
2021/06/29 13:02:14;;;;;;;4.20;3.77;;;;;;;;;;10331198;28;20808;-66
2021/06/29 13:07:13;;;;;;;4.10;3.78;;;;;;;;;;10322314;28;20083;-65
2021/06/29 13:12:14;;;;;;;3.90;3.58;;;;;;;;;;10310436;28;20029;-67
2021/06/29 13:17:15;;;;;;;4.00;3.53;;;;;;;;;;10318950;28;20041;-67
2021/06/29 13:22:14;;;;;;;8.68;3.80;;;;;;;;;;10321917;28;20464;-66
2021/06/29 13:27:22;;;;;;;7.45;4.10;;;;;;;;;;10314313;28;20037;-66
2021/06/29 13:32:20;;;;;;;7.32;3.72;;;;;;;;;;10322937;28;20099;-64
2021/06/29 13:37:25;;;;;;;6.53;3.20;;;;;;;;;;10318439;28;20043;-64
2021/06/29 13:42:26;;;;;;;6.38;3.00;;;;;;;;;;10319792;28;20048;-64
2021/06/29 13:47:24;;;;;;;6.78;3.40;;;;;;;;;;10317659;28;20130;-61
2021/06/29 13:52:21;;;;;;;;;;;;;;;;;;10325786;28;20130;-63
2021/06/29 13:57:19;;;;;;;4.03;2.53;;;;;;;;;;10312391;28;19986;-65
2021/06/29 14:02:26;;;;;;;3.33;2.72;;;;;;;;;;10318836;28;20041;-64
2021/06/29 14:07:24;;;;;;;3.47;2.58;;;;;;;;;;10321154;28;20029;-64
2021/06/29 14:12:26;;;;;;;5.40;2.78;;;;;;;;;;10305543;28;20451;-64
2021/06/29 14:17:23;;;;;;;3.55;2.65;;;;;;;;;;10316594;28;20255;-66
2021/06/29 14:22:20;;;;;;;;;;;;;;;;;;10331794;28;20196;-63
2021/06/29 14:27:18;;;;;;;3.50;2.72;;;;;;;;;;10311969;28;19921;-64
2021/06/29 14:32:15;;;;;;;;;;;;;;;;;;10323417;28;20040;-63
2021/06/29 14:37:13;;;;;;;7.78;3.22;;;;;;;;;;10321051;28;19927;-66
2021/06/29 14:42:10;;;;;;;6.23;3.13;;;;;;;;;;10326978;28;20116;-64
2021/06/29 14:47:08;;;;;;;2.85;2.60;;;;;;;;;;10325786;28;20033;-64
2021/06/29 14:52:07;;;;;;;;;;;;;;;;;;10318104;28;20025;-66
2021/06/29 14:57:04;;;;;;;3.80;3.00;;;;;;;;;;10320613;28;19913;-65
2021/06/29 15:02:01;;;;;;;;;;;;;;;;;;10326359;28;20410;-64
2021/06/29 15:06:59;;;;;;;7.18;3.25;;;;;;;;;;10317022;28;20016;-65
2021/06/29 15:11:57;;;;;;;4.40;2.50;;;;;;;;;;10320393;28;20034;-64
2021/06/29 15:16:54;;;;;;;;;;;;;;;;;;10334938;28;20037;-64
2021/06/29 15:21:51;;;;;;;6.25;3.28;;;;;;;;;;10328957;28;19916;-66
2021/06/29 15:26:49;;;;;;;;;;;;;;;;;;10326795;28;20132;-65
2021/06/29 15:31:49;;;;;;;5.33;2.97;;;;;;;;;;10320391;28;19913;-66
2021/06/29 15:36:47;;;;;;;5.72;2.92;;;;;;;;;;10328752;28;20164;-66
2021/06/29 15:41:44;;;;;;;;;;;;;;;;;;10333888;28;20063;-65
2021/06/29 15:46:42;;;;;;;4.70;2.70;;;;;;;;;;10338013;28;19993;-64
2021/06/29 15:51:39;;;;;;;;;;;;;;;;;;10334617;28;20033;-66
2021/06/29 15:56:37;;;;;;;5.38;2.80;;;;;;;;;;10337847;28;20018;-64
2021/06/29 16:01:35;;;;;;;;;;;;;;;;;;10320686;28;20035;-65
2021/06/29 16:06:33;;;;;;;4.67;3.03;;;;;;;;;;10333130;28;20674;-65
2021/06/29 16:11:30;;;;;;;;;;;;;;;;;;10332094;28;21355;-64
2021/06/29 16:16:28;;;;;;;4.83;2.13;;;;;;;;;;10332316;28;19947;-64
2021/06/29 16:21:25;;;;;;;;;;;;;;;;;;10339458;28;20120;-64
2021/06/29 16:26:24;;;;;;;5.22;2.20;;;;;;;;;;10336724;28;19917;-63
2021/06/29 16:31:21;;;;;;;4.18;2.35;;;;;;;;;;10329476;28;20098;-63
2021/06/29 16:36:18;;;;;;;3.17;1.90;;;;;;;;;;10330304;28;20127;-64
2021/06/29 16:41:16;;;;;;;;;;;;;;;;;;10321210;28;20045;-64
2021/06/29 16:46:14;;;;;;;5.60;1.80;;;;;;;;;;10319304;28;20545;-65
2021/06/29 16:51:14;;;;;;;3.28;1.52;;;;;;;;;;10325673;28;20033;-68
2021/06/29 16:56:18;;;;;;;4.13;1.63;;;;;;;;;;10328739;28;20604;-67
2021/06/29 17:01:16;;;;;;;2.45;1.52;;;;;;;;;;10321683;28;20171;-63
2021/06/29 17:06:14;;;;;;;2.58;1.52;;;;;;;;;;10323405;28;20526;-65
2021/06/29 17:11:11;;;;;;;2.20;1.13;;;;;;;;;;10308517;28;20045;-67
2021/06/29 17:16:09;;;;;;;2.10;1.40;;;;;;;;;;10312730;28;20355;-65
2021/06/29 17:21:07;;;;;;;2.10;1.33;;;;;;;;;;10320737;28;20037;-62
2021/06/29 17:26:05;;;;;;;4.07;1.20;;;;;;;;;;10311331;28;20528;-64
2021/06/29 17:31:02;;;;;;;1.67;0.90;;;;;;;;;;10313851;28;20029;-64
2021/06/29 17:36:00;;;;;;;2.27;1.30;;;;;;;;;;10304911;28;20047;-63
2021/06/29 17:40:57;;;;;;;2.85;1.25;;;;;;;;;;10322010;28;20041;-64
2021/06/29 17:45:55;;;;;;;3.80;1.15;;;;;;;;;;10328850;28;20041;-64
2021/06/29 17:50:52;;;;;;;2.83;1.20;;;;;;;;;;10319758;28;20040;-68
2021/06/29 17:55:50;;;;;;;1.93;1.20;;;;;;;;;;10317248;28;20032;-64
2021/06/29 18:00:48;;;;;;;6.13;1.17;;;;;;;;;;10317728;28;20298;-64
2021/06/29 18:05:45;;;;;;;2.13;1.15;;;;;;;;;;10325181;28;20030;-64
2021/06/29 18:10:42;;;;;;;2.10;1.10;;;;;;;;;;10323936;28;20029;-64
2021/06/29 18:15:41;;;;;;;2.13;1.20;;;;;;;;;;10321848;28;20033;-65
2021/06/29 18:20:39;;;;;;;1.75;1.30;;;;;;;;;;10320774;28;20037;-63
2021/06/29 18:25:36;;;;;;;2.65;1.42;;;;;;;;;;10311064;28;20026;-66
2021/06/29 18:30:35;;;;;;;2.33;1.97;;;;;;;;;;10327499;28;20021;-67
2021/06/29 18:35:32;;;;;;;;;;;;;;;;;;10337964;28;20307;-65
2021/06/29 18:40:30;;;;;;;4.35;2.30;;;;;;;;;;10333216;28;20351;-65
2021/06/29 18:45:27;;;;;;;3.17;2.37;;;;;;;;;;10314904;28;20056;-64
2021/06/29 18:50:25;;;;;;;4.07;2.40;;;;;;;;;;10339344;28;20083;-64
2021/06/29 18:55:26;;;;;;;4.93;2.93;;;;;;;;;;10323077;28;20042;-63
2021/06/29 19:00:25;;;;;;;3.15;2.60;;;;;;;;;;10323621;28;20041;-63
2021/06/29 19:05:23;;;;;;;3.72;2.83;;;;;;;;;;10319909;28;20048;-67
2021/06/29 19:10:20;;;;;;;;;;;;;;;;;;10329619;28;20037;-65
2021/06/29 19:15:19;;;;;;;4.90;2.88;;;;;;;;;;10327282;28;19913;-64
2021/06/29 19:20:17;;;;;;;4.57;3.45;;;;;;;;;;10317478;28;20033;-64
2021/06/29 19:25:15;;;;;;;5.10;3.40;;;;;;;;;;10329960;28;20033;-65
2021/06/29 19:30:14;;;;;;;4.50;3.28;;;;;;;;;;10321358;28;20034;-64
2021/06/29 19:35:12;;;;;;;5.45;3.30;;;;;;;;;;10315897;28;20048;-65
2021/06/29 19:40:11;;;;;;;3.58;3.28;;;;;;;;;;10319357;28;20090;-65
2021/06/29 19:45:09;;;;;;;6.35;3.40;;;;;;;;;;10326059;28;20812;-65
2021/06/29 19:50:07;;;;;;;3.75;3.45;;;;;;;;;;10329464;28;20041;-64
2021/06/29 19:55:07;;;;;;;5.03;3.50;;;;;;;;;;10323939;28;20113;-63
2021/06/29 20:00:09;;;;;;;3.88;3.45;;;;;;;;;;10327026;28;20033;-62
2021/06/29 20:05:10;;;;;;;4.07;3.65;;;;;;;;;;10321075;28;20434;-63
2021/06/29 20:10:08;;;;;;;;;;;;;;;;;;10343611;28;20040;-64
2021/06/29 20:15:09;;;;;;;5.00;3.67;;;;;;;;;;10326862;28;19912;-64
2021/06/29 20:20:08;;;;;;;6.68;3.67;;;;;;;;;;10325907;28;20036;-63
2021/06/29 20:25:06;;;;;;;4.35;3.78;;;;;;;;;;10331962;28;20033;-64
2021/06/29 20:30:05;;;;;;;4.43;3.88;;;;;;;;;;10322057;28;20387;-64
2021/06/29 20:35:02;;;;;;;4.57;3.85;;;;;;;;;;10312881;28;20037;-64
2021/06/29 20:40:00;;;;;;;5.45;3.80;;;;;;;;;;10309004;28;20045;-64
2021/06/29 20:44:58;;;;;;;3.90;3.50;;;;;;;;;;10327150;28;20036;-64
2021/06/29 20:49:58;;;;;;;6.30;4.47;;;;;;;;;;10302206;28;20719;-68
2021/06/29 20:54:55;;;;;;;5.47;4.22;;;;;;;;;;10317294;28;20449;-62
2021/06/29 20:59:53;;;;;;;4.90;3.70;;;;;;;;;;10326584;28;20060;-62
2021/06/29 21:04:50;;;;;;;5.53;3.90;;;;;;;;;;10303270;28;20086;-64
2021/06/29 21:09:49;;;;;;;4.40;4.00;;;;;;;;;;10282358;28;20288;-64
2021/06/29 21:14:47;;;;;;;5.00;4.20;;;;;;;;;;10328596;28;20036;-64
2021/06/29 21:19:44;;;;;;;6.07;4.23;;;;;;;;;;10312544;28;20033;-69
2021/06/29 21:24:42;;;;;;;6.03;4.43;;;;;;;;;;10314724;28;20044;-63
2021/06/29 21:29:39;;;;;;;5.10;4.20;;;;;;;;;;10323064;28;20033;-63
2021/06/29 21:34:38;;;;;;;5.53;3.80;;;;;;;;;;10305383;28;20048;-68
2021/06/29 21:39:36;;;;;;;7.05;4.38;;;;;;;;;;10301773;28;20040;-65
2021/06/29 21:44:34;;;;;;;7.03;4.80;;;;;;;;;;10333170;28;20051;-65
2021/06/29 21:49:32;;;;;;;6.23;4.53;;;;;;;;;;10307172;28;20033;-65
2021/06/29 21:54:29;;;;;;;9.88;4.90;;;;;;;;;;10306786;28;20119;-65
2021/06/29 21:59:27;;;;;;;10.03;4.87;;;;;;;;;;10310594;28;20131;-65
2021/06/29 22:04:25;;;;;;;11.82;5.20;;;;;;;;;;10308081;28;20389;-64
2021/06/29 22:09:22;;;;;;;15.33;6.00;;;;;;;;;;10300637;28;20041;-64
2021/06/29 22:14:20;;;;;;;14.83;6.03;;;;;;;;;;10310992;28;20036;-64
2021/06/29 22:19:18;;;;;;;;;;;;;;;;;;10317477;28;20049;-64
2021/06/29 22:24:15;;;;;;;14.48;6.43;;;;;;;;;;10308522;28;20421;-65
2021/06/29 22:29:13;;;;;;;13.63;6.57;;;;;;;;;;10300747;28;20017;-63
2021/06/29 22:34:10;;;;;;;14.97;6.50;;;;;;;;;;10306284;28;20509;-64
2021/06/29 22:39:07;;;;;;;11.93;6.43;;;;;;;;;;10312727;28;20029;-63
2021/06/29 22:44:05;;;;;;;14.77;6.93;;;;;;;;;;10316865;28;20025;-63
2021/06/29 22:49:02;;;;;;;16.57;7.60;;;;;;;;;;10323286;28;20556;-63
2021/06/29 22:54:00;;;;;;;16.93;7.47;;;;;;;;;;10316091;28;20026;-63
2021/06/29 22:58:57;;;;;;;17.43;7.93;;;;;;;;;;10332024;28;20127;-65
2021/06/29 23:03:54;;;;;;;13.03;6.53;;;;;;;;;;10317664;28;20033;-65
2021/06/29 23:08:52;;;;;;;13.90;6.90;;;;;;;;;;10328716;28;20096;-64
2021/06/29 23:13:49;;;;;;;20.27;6.23;;;;;;;;;;10316316;28;20506;-64
2021/06/29 23:18:47;;;;;;;17.50;6.60;;;;;;;;;;10332206;28;20029;-64
2021/06/29 23:23:44;;;;;;;20.57;7.50;;;;;;;;;;10328415;28;20036;-61
2021/06/29 23:28:42;;;;;;;14.77;7.17;;;;;;;;;;10323813;28;20025;-62
2021/06/29 23:33:39;;;;;;;15.17;7.13;;;;;;;;;;10312210;28;20088;-64
2021/06/29 23:38:37;;;;;;;15.87;7.10;;;;;;;;;;10319718;28;20037;-60
2021/06/29 23:43:34;;;;;;;12.80;6.33;;;;;;;;;;10312548;28;20178;-62
2021/06/29 23:48:31;;;;;;;14.97;6.67;;;;;;;;;;10333720;28;20029;-62
2021/06/29 23:53:29;;;;;;;17.20;7.33;;;;;;;;;;10340182;28;20041;-62
2021/06/29 23:58:26;;;;;;;16.43;6.57;;;;;;;;;;10326520;28;20039;-62
